createdAt,value
2016-06-01T00:00:48.181Z,99.88
2016-06-01T00:01:48.169Z,99.88
2016-06-01T00:02:48.156Z,99.88
2016-06-01T00:03:48.127Z,99.59
2016-06-01T00:04:48.114Z,99.68
2016-06-01T00:05:48.101Z,99.63
2016-06-01T00:06:48.072Z,99.88
2016-06-01T00:07:48.060Z,99.99
2016-06-01T00:08:48.046Z,99.99
2016-06-01T00:09:48.056Z,99.99
2016-06-01T00:10:48.053Z,99.68
2016-06-01T00:11:48.066Z,99.4
2016-06-01T00:12:48.080Z,99.59
2016-06-01T00:13:48.077Z,99.35
2016-06-01T00:14:48.077Z,99.35
2016-06-01T00:15:48.073Z,99.54
2016-06-01T00:16:48.070Z,99.54
2016-06-01T00:17:48.051Z,99.54
2016-06-01T00:18:48.047Z,99.63
2016-06-01T00:19:48.039Z,99.54
2016-06-01T00:20:48.030Z,99.54
2016-06-01T00:21:48.005Z,99.54
2016-06-01T00:22:47.995Z,99.63
2016-06-01T00:23:47.986Z,99.73
2016-06-01T00:24:47.958Z,99.63
2016-06-01T00:25:47.946Z,99.83
2016-06-01T00:26:47.935Z,99.92
2016-06-01T00:27:47.908Z,99.92
2016-06-01T00:28:47.896Z,99.83
2016-06-01T00:29:47.883Z,99.73
2016-06-01T00:30:47.855Z,99.63
2016-06-01T00:31:47.842Z,99.63
2016-06-01T00:32:47.830Z,99.83
2016-06-01T00:33:47.802Z,99.99
2016-06-01T00:34:47.805Z,99.73
2016-06-01T00:35:47.776Z,99.99
2016-06-01T00:36:47.764Z,99.92
2016-06-01T00:37:47.734Z,99.92
2016-06-01T00:38:47.722Z,99.83
2016-06-01T00:39:47.709Z,99.54
2016-06-01T00:40:47.681Z,99.83
2016-06-01T00:41:47.667Z,99.73
2016-06-01T00:42:47.655Z,99.99
2016-06-01T00:43:47.625Z,99.99
2016-06-01T00:44:47.613Z,99.99
2016-06-01T00:45:47.600Z,99.99
2016-06-01T00:46:47.633Z,99.99
2016-06-01T00:47:47.558Z,99.99
2016-06-01T00:48:47.546Z,99.99
2016-06-01T00:49:47.533Z,99.99
2016-06-01T00:50:47.504Z,99.99
2016-06-01T00:51:47.491Z,99.99
2016-06-01T00:52:47.463Z,99.99
2016-06-01T00:53:47.449Z,99.99
2016-06-01T00:54:47.437Z,99.97
2016-06-01T00:55:47.405Z,99.99
2016-06-01T00:56:47.393Z,99.99
2016-06-01T00:57:47.379Z,99.78
2016-06-01T00:58:47.351Z,99.97
2016-06-01T00:59:47.338Z,99.97
2016-06-01T01:00:47.340Z,99.3
2016-06-01T01:01:47.312Z,99.68
2016-06-01T01:02:47.284Z,99.99
2016-06-01T01:03:47.271Z,99.99
2016-06-01T01:04:47.258Z,99.58
2016-06-01T01:05:47.229Z,99.99
2016-06-01T01:06:47.216Z,99.99
2016-06-01T01:07:47.187Z,99.78
2016-06-01T01:08:47.175Z,99.97
2016-06-01T01:09:47.162Z,99.99
2016-06-01T01:10:47.133Z,99.87
2016-06-01T01:11:47.120Z,99.87
2016-06-01T01:12:47.108Z,99.99
2016-06-01T01:13:47.094Z,99.78
2016-06-01T01:14:47.066Z,99.78
2016-06-01T01:15:47.053Z,99.78
2016-06-01T01:16:47.041Z,99.97
2016-06-01T01:17:47.011Z,99.97
2016-06-01T01:18:46.999Z,99.99
2016-06-01T01:19:46.985Z,99.99
2016-06-01T01:20:46.957Z,99.99
2016-06-01T01:21:46.944Z,99.99
2016-06-01T01:22:46.932Z,99.99
2016-06-01T01:23:46.965Z,99.99
2016-06-01T01:24:46.890Z,99.99
2016-06-01T01:25:46.861Z,99.99
2016-06-01T01:26:46.848Z,99.99
2016-06-01T01:27:46.835Z,99.99
2016-06-01T01:28:46.823Z,99.99
2016-06-01T01:29:46.794Z,99.99
2016-06-01T01:30:46.781Z,99.99
2016-06-01T01:31:46.767Z,99.99
2016-06-01T01:32:46.739Z,99.99
2016-06-01T01:33:46.726Z,99.99
2016-06-01T01:34:46.714Z,99.99
2016-06-01T01:35:46.684Z,99.99
2016-06-01T01:36:46.672Z,99.99
2016-06-01T01:37:46.659Z,99.99
2016-06-01T01:38:46.631Z,99.99
2016-06-01T01:39:46.617Z,99.99
2016-06-01T01:40:46.605Z,99.99
2016-06-01T01:41:46.575Z,99.99
2016-06-01T01:42:46.563Z,99.99
2016-06-01T01:43:46.550Z,99.99
2016-06-01T01:44:46.522Z,99.99
2016-06-01T01:45:46.508Z,99.99
2016-06-01T01:46:46.496Z,99.99
2016-06-01T01:47:46.467Z,99.99
2016-06-01T01:48:46.455Z,99.99
2016-06-01T01:49:46.441Z,99.99
2016-06-01T01:50:46.413Z,99.99
2016-06-01T01:51:46.400Z,99.99
2016-06-01T01:52:46.387Z,99.99
2016-06-01T01:53:46.405Z,99.99
2016-06-01T01:54:46.345Z,99.99
2016-06-01T01:55:46.332Z,99.99
2016-06-01T01:56:46.304Z,99.99
2016-06-01T01:57:46.291Z,99.99
2016-06-01T01:58:46.278Z,99.99
2016-06-01T01:59:46.249Z,99.99
2016-06-01T02:00:46.237Z,99.99
2016-06-01T02:01:46.223Z,99.97
2016-06-01T02:02:46.195Z,99.99
2016-06-01T02:03:46.181Z,99.99
2016-06-01T02:04:46.170Z,99.99
2016-06-01T02:05:46.156Z,99.99
2016-06-01T02:06:46.128Z,99.99
2016-06-01T02:07:46.115Z,99.99
2016-06-01T02:08:46.086Z,99.99
2016-06-01T02:09:46.072Z,99.99
2016-06-01T02:10:46.061Z,99.99
2016-06-01T02:11:46.031Z,99.99
2016-06-01T02:12:46.019Z,99.99
2016-06-01T02:13:46.006Z,99.99
2016-06-01T02:14:45.977Z,99.99
2016-06-01T02:15:45.964Z,99.99
2016-06-01T02:16:45.952Z,99.99
2016-06-01T02:17:45.939Z,99.99
2016-06-01T02:18:45.910Z,99.99
2016-06-01T02:19:45.897Z,99.99
2016-06-01T02:20:45.868Z,99.99
2016-06-01T02:21:45.855Z,99.99
2016-06-01T02:22:45.843Z,99.99
2016-06-01T02:23:45.829Z,99.99
2016-06-01T02:24:45.817Z,99.99
2016-06-01T02:25:45.788Z,99.99
2016-06-01T02:26:45.759Z,99.99
2016-06-01T02:27:45.746Z,99.99
2016-06-01T02:28:45.734Z,99.99
2016-06-01T02:29:45.720Z,99.99
2016-06-01T02:30:45.693Z,99.99
2016-06-01T02:31:45.680Z,99.99
2016-06-01T02:32:45.665Z,99.99
2016-06-01T02:33:45.638Z,99.99
2016-06-01T02:34:45.625Z,99.99
2016-06-01T02:35:45.596Z,99.99
2016-06-01T02:36:45.584Z,99.99
2016-06-01T02:37:45.570Z,99.99
2016-06-01T02:38:45.556Z,99.99
2016-06-01T02:39:45.544Z,99.99
2016-06-01T02:40:45.531Z,99.99
2016-06-01T02:41:45.487Z,99.99
2016-06-01T02:42:45.475Z,99.99
2016-06-01T02:43:45.462Z,99.99
2016-06-01T02:44:45.448Z,99.99
2016-06-01T02:45:45.419Z,99.99
2016-06-01T02:46:45.407Z,99.99
2016-06-01T02:47:45.378Z,99.99
2016-06-01T02:48:45.366Z,99.99
2016-06-01T02:49:45.353Z,99.99
2016-06-01T02:50:45.324Z,99.99
2016-06-01T02:51:45.310Z,99.99
2016-06-01T02:52:45.360Z,99.99
2016-06-01T02:53:45.270Z,99.99
2016-06-01T02:54:45.257Z,99.99
2016-06-01T02:55:45.307Z,99.99
2016-06-01T02:56:45.216Z,99.99
2016-06-01T02:57:45.202Z,99.99
2016-06-01T02:58:45.189Z,99.99
2016-06-01T02:59:45.177Z,99.99
2016-06-01T03:00:45.148Z,99.99
2016-06-01T03:01:45.135Z,99.99
2016-06-01T03:02:45.122Z,99.99
2016-06-01T03:03:45.093Z,99.99
2016-06-01T03:04:45.080Z,99.99
2016-06-01T03:05:45.068Z,99.99
2016-06-01T03:06:45.039Z,99.99
2016-06-01T03:07:45.026Z,99.99
2016-06-01T03:08:45.092Z,99.99
2016-06-01T03:09:44.984Z,99.99
2016-06-01T03:10:44.972Z,99.99
2016-06-01T03:11:44.958Z,99.99
2016-06-01T03:12:44.931Z,99.99
2016-06-01T03:13:44.917Z,99.99
2016-06-01T03:14:44.889Z,99.99
2016-06-01T03:15:44.875Z,99.99
2016-06-01T03:16:44.863Z,99.99
2016-06-01T03:17:44.850Z,99.99
2016-06-01T03:18:44.837Z,99.99
2016-06-01T03:19:44.808Z,99.99
2016-06-01T03:20:44.795Z,99.99
2016-06-01T03:21:44.767Z,99.99
2016-06-01T03:22:44.754Z,99.99
2016-06-01T03:23:44.725Z,99.99
2016-06-01T03:24:44.713Z,99.99
2016-06-01T03:25:44.700Z,99.99
2016-06-01T03:26:44.686Z,99.99
2016-06-01T03:27:44.658Z,99.99
2016-06-01T03:28:44.646Z,99.99
2016-06-01T03:29:44.632Z,99.99
2016-06-01T03:30:44.604Z,99.99
2016-06-01T03:31:44.591Z,99.99
2016-06-01T03:32:44.578Z,99.99
2016-06-01T03:33:44.549Z,99.99
2016-06-01T03:34:44.536Z,99.99
2016-06-01T03:35:44.523Z,99.99
2016-06-01T03:36:44.495Z,99.99
2016-06-01T03:37:44.482Z,99.99
2016-06-01T03:38:44.751Z,99.99
2016-06-01T03:39:44.440Z,99.99
2016-06-01T03:40:44.427Z,99.99
2016-06-01T03:41:44.414Z,99.99
2016-06-01T03:42:44.386Z,99.99
2016-06-01T03:43:44.373Z,99.99
2016-06-01T03:44:44.360Z,99.99
2016-06-01T03:45:44.332Z,99.99
2016-06-01T03:46:44.318Z,99.99
2016-06-01T03:47:44.305Z,99.99
2016-06-01T03:48:44.277Z,99.99
2016-06-01T03:49:44.264Z,99.99
2016-06-01T03:50:44.250Z,99.99
2016-06-01T03:51:44.286Z,99.99
2016-06-01T03:52:44.209Z,99.99
2016-06-01T03:53:44.197Z,99.99
2016-06-01T03:54:44.169Z,99.99
2016-06-01T03:55:44.155Z,99.99
2016-06-01T03:56:44.142Z,99.99
2016-06-01T03:57:44.130Z,99.99
2016-06-01T03:58:44.101Z,99.99
2016-06-01T03:59:44.088Z,99.99
2016-06-01T04:00:44.074Z,99.99
2016-06-01T04:01:44.046Z,99.99
2016-06-01T04:02:44.033Z,99.99
2016-06-01T04:03:44.021Z,99.99
2016-06-01T04:04:44.008Z,99.99
2016-06-01T04:05:43.978Z,99.99
2016-06-01T04:06:43.966Z,99.99
2016-06-01T04:07:43.938Z,99.99
2016-06-01T04:08:44.174Z,99.99
2016-06-01T04:09:43.912Z,99.99
2016-06-01T04:10:43.884Z,99.99
2016-06-01T04:11:43.870Z,99.99
2016-06-01T04:12:43.857Z,99.99
2016-06-01T04:13:43.845Z,99.99
2016-06-01T04:14:43.815Z,99.99
2016-06-01T04:15:43.803Z,99.99
2016-06-01T04:16:43.790Z,99.99
2016-06-01T04:17:43.761Z,99.99
2016-06-01T04:18:43.748Z,99.99
2016-06-01T04:19:43.735Z,99.99
2016-06-01T04:20:43.707Z,99.99
2016-06-01T04:21:43.694Z,99.99
2016-06-01T04:22:43.681Z,99.99
2016-06-01T04:23:43.871Z,99.99
2016-06-01T04:24:43.733Z,99.99
2016-06-01T04:25:43.626Z,99.99
2016-06-01T04:26:43.614Z,99.99
2016-06-01T04:27:43.585Z,99.99
2016-06-01T04:28:43.572Z,99.99
2016-06-01T04:29:43.559Z,99.99
2016-06-01T04:30:43.531Z,99.99
2016-06-01T04:31:43.517Z,99.99
2016-06-01T04:32:43.505Z,99.99
2016-06-01T04:33:43.491Z,99.99
2016-06-01T04:34:43.479Z,99.99
2016-06-01T04:35:43.451Z,99.99
2016-06-01T04:36:43.437Z,99.99
2016-06-01T04:37:43.409Z,99.99
2016-06-01T04:38:43.396Z,99.99
2016-06-01T04:39:43.383Z,99.99
2016-06-01T04:40:43.354Z,99.99
2016-06-01T04:41:43.342Z,99.99
2016-06-01T04:42:43.328Z,99.99
2016-06-01T04:43:43.315Z,99.99
2016-06-01T04:44:43.287Z,99.99
2016-06-01T04:45:43.273Z,99.99
2016-06-01T04:46:43.261Z,99.99
2016-06-01T04:47:43.248Z,99.99
2016-06-01T04:48:43.219Z,99.97
2016-06-01T04:49:43.207Z,99.99
2016-06-01T04:50:43.178Z,99.68
2016-06-01T04:51:43.164Z,99.99
2016-06-01T04:52:43.153Z,99.99
2016-06-01T04:53:43.139Z,99.99
2016-06-01T04:54:43.110Z,99.99
2016-06-01T04:55:43.098Z,99.99
2016-06-01T04:56:43.085Z,99.99
2016-06-01T04:57:43.056Z,99.63
2016-06-01T04:58:43.043Z,99.99
2016-06-01T04:59:43.031Z,99.99
2016-06-01T05:00:43.018Z,99.99
2016-06-01T05:01:42.989Z,99.92
2016-06-01T05:02:42.976Z,99.92
2016-06-01T05:03:42.963Z,99.99
2016-06-01T05:04:42.950Z,99.99
2016-06-01T05:05:42.921Z,99.73
2016-06-01T05:06:42.909Z,99.99
2016-06-01T05:07:42.880Z,99.73
2016-06-01T05:08:42.868Z,99.83
2016-06-01T05:09:42.855Z,99.99
2016-06-01T05:10:42.841Z,99.99
2016-06-01T05:11:42.812Z,99.83
2016-06-01T05:12:42.800Z,99.99
2016-06-01T05:13:42.787Z,99.99
2016-06-01T05:14:42.773Z,99.99
2016-06-01T05:15:42.745Z,99.73
2016-06-01T05:16:42.732Z,99.99
2016-06-01T05:17:42.720Z,99.99
2016-06-01T05:18:42.706Z,99.63
2016-06-01T05:19:42.694Z,99.99
2016-06-01T05:20:42.665Z,99.99
2016-06-01T05:21:42.653Z,99.99
2016-06-01T05:22:42.639Z,99.99
2016-06-01T05:23:42.610Z,99.63
2016-06-01T05:24:42.598Z,99.99
2016-06-01T05:25:42.585Z,99.99
2016-06-01T05:26:42.572Z,99.83
2016-06-01T05:27:42.544Z,99.73
2016-06-01T05:28:42.530Z,99.99
2016-06-01T05:29:42.517Z,99.99
2016-06-01T05:30:42.505Z,99.99
2016-06-01T05:31:42.476Z,99.73
2016-06-01T05:32:42.463Z,99.99
2016-06-01T05:33:42.450Z,99.99
2016-06-01T05:34:42.421Z,99.99
2016-06-01T05:35:42.408Z,99.99
2016-06-01T05:36:42.396Z,99.78
2016-06-01T05:37:42.383Z,99.99
2016-06-01T05:38:42.354Z,99.97
2016-06-01T05:39:42.341Z,99.99
2016-06-01T05:40:42.328Z,99.99
2016-06-01T05:41:42.315Z,99.99
2016-06-01T05:42:42.287Z,99.97
2016-06-01T05:43:42.273Z,99.99
2016-06-01T05:44:42.276Z,99.99
2016-06-01T05:45:42.232Z,99.78
2016-06-01T05:46:42.220Z,99.97
2016-06-01T05:47:42.206Z,99.87
2016-06-01T05:48:42.193Z,99.99
2016-06-01T05:49:42.165Z,99.99
2016-06-01T05:50:42.153Z,99.99
2016-06-01T05:51:42.139Z,99.99
2016-06-01T05:52:42.111Z,99.99
2016-06-01T05:53:42.097Z,99.99
2016-06-01T05:54:42.084Z,99.99
2016-06-01T05:55:42.072Z,99.99
2016-06-01T05:56:42.059Z,99.99
2016-06-01T05:57:42.030Z,99.99
2016-06-01T05:58:42.017Z,99.99
2016-06-01T05:59:42.005Z,99.99
2016-06-01T06:00:41.976Z,99.99
2016-06-01T06:01:41.963Z,99.99
2016-06-01T06:02:41.935Z,99.99
2016-06-01T06:03:41.922Z,99.99
2016-06-01T06:04:41.908Z,99.99
2016-06-01T06:05:41.895Z,99.99
2016-06-01T06:06:41.882Z,99.99
2016-06-01T06:07:41.854Z,99.99
2016-06-01T06:08:42.279Z,99.99
2016-06-01T06:09:43.109Z,99.99
2016-06-01T06:10:41.815Z,99.99
2016-06-01T06:11:41.787Z,99.99
2016-06-01T06:12:41.774Z,99.99
2016-06-01T06:13:41.761Z,99.99
2016-06-01T06:14:41.748Z,99.99
2016-06-01T06:15:41.719Z,99.99
2016-06-01T06:16:41.706Z,99.99
2016-06-01T06:17:41.693Z,99.99
2016-06-01T06:18:41.680Z,99.99
2016-06-01T06:19:41.667Z,99.99
2016-06-01T06:20:41.639Z,99.78
2016-06-01T06:21:41.625Z,99.99
2016-06-01T06:22:41.613Z,99.99
2016-06-01T06:23:41.601Z,99.99
2016-06-01T06:24:41.572Z,99.99
2016-06-01T06:25:41.559Z,99.88
2016-06-01T06:26:41.545Z,99.99
2016-06-01T06:27:41.533Z,99.99
2016-06-01T06:28:41.504Z,99.98
2016-06-01T06:29:41.492Z,99.99
2016-06-01T06:30:41.478Z,99.99
2016-06-01T06:31:41.465Z,99.99
2016-06-01T06:32:41.452Z,99.99
2016-06-01T06:33:41.439Z,99.98
2016-06-01T06:34:41.411Z,99.59
2016-06-01T06:35:41.399Z,99.88
2016-06-01T06:36:41.385Z,99.78
2016-06-01T06:37:41.372Z,99.99
2016-06-01T06:38:41.343Z,99.88
2016-06-01T06:39:41.752Z,99.88
2016-06-01T06:40:41.318Z,99.68
2016-06-01T06:41:41.305Z,99.78
2016-06-01T06:42:41.293Z,99.59
2016-06-01T06:43:41.279Z,99.99
2016-06-01T06:44:41.251Z,99.99
2016-06-01T06:45:41.237Z,99.99
2016-06-01T06:46:41.256Z,99.99
2016-06-01T06:47:41.212Z,99.99
2016-06-01T06:48:41.183Z,99.99
2016-06-01T06:49:41.170Z,99.99
2016-06-01T06:50:41.157Z,99.99
2016-06-01T06:51:41.145Z,99.99
2016-06-01T06:52:41.131Z,99.68
2016-06-01T06:53:41.102Z,99.99
2016-06-01T06:54:41.089Z,99.99
2016-06-01T06:55:41.077Z,99.99
2016-06-01T06:56:41.064Z,99.99
2016-06-01T06:57:41.051Z,99.99
2016-06-01T06:58:41.023Z,99.99
2016-06-01T06:59:41.009Z,99.99
2016-06-01T07:00:40.996Z,99.64
2016-06-01T07:01:40.983Z,99.99
2016-06-01T07:02:40.971Z,99.99
2016-06-01T07:03:40.958Z,99.99
2016-06-01T07:04:40.930Z,99.99
2016-06-01T07:05:40.917Z,99.99
2016-06-01T07:06:40.903Z,99.99
2016-06-01T07:07:40.905Z,99.99
2016-06-01T07:08:40.878Z,99.54
2016-06-01T07:09:40.865Z,99.98
2016-06-01T07:10:40.852Z,99.98
2016-06-01T07:11:40.823Z,99.69
2016-06-01T07:12:40.810Z,99.88
2016-06-01T07:13:40.797Z,99.78
2016-06-01T07:14:40.799Z,99.3
2016-06-01T07:15:40.771Z,99.3
2016-06-01T07:16:40.758Z,99.21
2016-06-01T07:17:40.730Z,99.11
2016-06-01T07:18:40.717Z,99.11
2016-06-01T07:19:40.720Z,98.72
2016-06-01T07:20:40.691Z,98.44
2016-06-01T07:21:40.678Z,98.63
2016-06-01T07:22:40.665Z,98.92
2016-06-01T07:23:40.652Z,97.76
2016-06-01T07:24:40.639Z,98.05
2016-06-01T07:25:40.626Z,98.92
2016-06-01T07:26:40.614Z,98.82
2016-06-01T07:27:40.584Z,98.92
2016-06-01T07:28:40.572Z,99.3
2016-06-01T07:29:40.575Z,99.01
2016-06-01T07:30:40.546Z,99.69
2016-06-01T07:31:40.533Z,99.78
2016-06-01T07:32:40.520Z,99.4
2016-06-01T07:33:40.508Z,99.59
2016-06-01T07:34:40.494Z,99.93
2016-06-01T07:35:40.481Z,98.97
2016-06-01T07:36:40.469Z,98.58
2016-06-01T07:37:40.440Z,98.58
2016-06-01T07:38:40.785Z,98.77
2016-06-01T07:39:40.413Z,98.49
2016-06-01T07:40:40.401Z,98.77
2016-06-01T07:41:40.388Z,98.68
2016-06-01T07:42:40.375Z,98
2016-06-01T07:43:40.363Z,98.19
2016-06-01T07:44:40.349Z,97.62
2016-06-01T07:45:40.336Z,97.62
2016-06-01T07:46:40.307Z,97.62
2016-06-01T07:47:40.295Z,97.47
2016-06-01T07:48:40.282Z,97.57
2016-06-01T07:49:40.269Z,97.62
2016-06-01T07:50:40.256Z,98
2016-06-01T07:51:40.259Z,97.76
2016-06-01T07:52:40.230Z,98.58
2016-06-01T07:53:40.233Z,98.39
2016-06-01T07:54:40.204Z,98.87
2016-06-01T07:55:40.192Z,98.97
2016-06-01T07:56:40.178Z,98.68
2016-06-01T07:57:40.165Z,98.39
2016-06-01T07:58:40.137Z,98.77
2016-06-01T07:59:40.124Z,98.97
2016-06-01T08:00:40.112Z,99.26
2016-06-01T08:01:40.097Z,99.35
2016-06-01T08:02:40.085Z,98.97
2016-06-01T08:03:40.072Z,98.58
2016-06-01T08:04:40.059Z,97.81
2016-06-01T08:05:40.046Z,97.91
2016-06-01T08:06:40.018Z,97.81
2016-06-01T08:07:40.005Z,98.39
2016-06-01T08:08:40.852Z,98
2016-06-01T08:09:40.041Z,98.19
2016-06-01T08:10:39.966Z,97.81
2016-06-01T08:11:39.952Z,97.76
2016-06-01T08:12:39.940Z,98.05
2016-06-01T08:13:39.927Z,98.54
2016-06-01T08:14:39.915Z,98.72
2016-06-01T08:15:39.902Z,98.92
2016-06-01T08:16:39.888Z,98.34
2016-06-01T08:17:39.860Z,98.82
2016-06-01T08:18:39.846Z,98.63
2016-06-01T08:19:39.834Z,98.72
2016-06-01T08:20:39.837Z,98.92
2016-06-01T08:21:39.809Z,99.26
2016-06-01T08:22:39.796Z,99.26
2016-06-01T08:23:39.782Z,99.26
2016-06-01T08:24:39.769Z,98.92
2016-06-01T08:25:39.757Z,98.58
2016-06-01T08:26:39.743Z,98.54
2016-06-01T08:27:39.731Z,98.63
2016-06-01T08:28:39.702Z,97.86
2016-06-01T08:29:39.736Z,97.76
2016-06-01T08:30:39.676Z,97.96
2016-06-01T08:31:39.664Z,97.67
2016-06-01T08:32:39.650Z,97.86
2016-06-01T08:33:39.636Z,98.05
2016-06-01T08:34:39.625Z,99.01
2016-06-01T08:35:39.611Z,98.92
2016-06-01T08:36:39.770Z,98.82
2016-06-01T08:37:39.570Z,98.92
2016-06-01T08:38:39.557Z,98.72
2016-06-01T08:39:39.544Z,98.29
2016-06-01T08:40:39.531Z,99.06
2016-06-01T08:41:39.502Z,99.16
2016-06-01T08:42:39.490Z,98.68
2016-06-01T08:43:39.477Z,98.68
2016-06-01T08:44:39.464Z,98.87
2016-06-01T08:45:39.451Z,98.77
2016-06-01T08:46:39.438Z,99.26
2016-06-01T08:47:39.410Z,99.26
2016-06-01T08:48:39.397Z,99.06
2016-06-01T08:49:39.384Z,98.87
2016-06-01T08:50:39.386Z,99.16
2016-06-01T08:51:39.357Z,98.96
2016-06-01T08:52:39.345Z,99.16
2016-06-01T08:53:40.363Z,99.35
2016-06-01T08:54:39.319Z,99.26
2016-06-01T08:55:39.290Z,99.64
2016-06-01T08:56:39.278Z,99.54
2016-06-01T08:57:39.265Z,99.06
2016-06-01T08:58:39.251Z,99.16
2016-06-01T08:59:39.222Z,99.64
2016-06-01T09:00:39.210Z,99.44
2016-06-01T09:01:39.197Z,99.64
2016-06-01T09:02:39.184Z,99.64
2016-06-01T09:03:39.172Z,99.93
2016-06-01T09:04:39.158Z,99.73
2016-06-01T09:05:39.145Z,99.73
2016-06-01T09:06:39.117Z,99.93
2016-06-01T09:07:39.119Z,99.99
2016-06-01T09:08:39.091Z,99.99
2016-06-01T09:09:39.077Z,99.73
2016-06-01T09:10:39.065Z,99.73
2016-06-01T09:11:39.052Z,99.93
2016-06-01T09:12:39.024Z,99.99
2016-06-01T09:13:39.027Z,99.99
2016-06-01T09:14:38.997Z,99.99
2016-06-01T09:15:38.986Z,99.83
2016-06-01T09:16:38.997Z,99.99
2016-06-01T09:17:39.009Z,99.78
2016-06-01T09:18:39.019Z,99.44
2016-06-01T09:19:39.016Z,99.16
2016-06-01T09:20:39.056Z,99.44
2016-06-01T09:21:39.021Z,99.44
2016-06-01T09:22:39.016Z,99.3
2016-06-01T09:23:39.012Z,99.73
2016-06-01T09:24:39.008Z,99.93
2016-06-01T09:25:39.003Z,99.78
2016-06-01T09:26:38.993Z,99.4
2016-06-01T09:27:38.984Z,99.88
2016-06-01T09:28:38.957Z,99.83
2016-06-01T09:29:38.948Z,99.21
2016-06-01T09:30:38.938Z,99.49
2016-06-01T09:31:38.926Z,99.59
2016-06-01T09:32:38.899Z,99.59
2016-06-01T09:33:38.888Z,99.78
2016-06-01T09:34:38.875Z,99.21
2016-06-01T09:35:38.863Z,99.4
2016-06-01T09:36:38.851Z,99.3
2016-06-01T09:37:38.838Z,98.54
2016-06-01T09:38:38.826Z,98.96
2016-06-01T09:39:38.797Z,99.06
2016-06-01T09:40:38.785Z,99.16
2016-06-01T09:41:38.773Z,99.06
2016-06-01T09:42:38.760Z,98.87
2016-06-01T09:43:38.747Z,99.64
2016-06-01T09:44:38.734Z,99.83
2016-06-01T09:45:38.722Z,99.69
2016-06-01T09:46:38.693Z,99.54
2016-06-01T09:47:38.681Z,99.44
2016-06-01T09:48:38.684Z,99.16
2016-06-01T09:49:38.670Z,98.96
2016-06-01T09:50:38.642Z,99.26
2016-06-01T09:51:38.629Z,99.26
2016-06-01T09:52:38.601Z,98.96
2016-06-01T09:53:38.587Z,99.26
2016-06-01T09:54:39.433Z,99.83
2016-06-01T09:55:38.562Z,99.06
2016-06-01T09:56:38.548Z,99.06
2016-06-01T09:57:38.536Z,99.26
2016-06-01T09:58:38.507Z,98.87
2016-06-01T09:59:38.494Z,99.26
2016-06-01T10:00:38.481Z,99.06
2016-06-01T10:01:38.469Z,98.96
2016-06-01T10:02:38.456Z,99.06
2016-06-01T10:03:38.442Z,99.44
2016-06-01T10:04:38.413Z,99.73
2016-06-01T10:05:38.402Z,99.49
2016-06-01T10:06:38.404Z,99.44
2016-06-01T10:07:38.375Z,99.44
2016-06-01T10:08:38.362Z,99.44
2016-06-01T10:09:38.333Z,99.73
2016-06-01T10:10:38.321Z,99.99
2016-06-01T10:11:38.324Z,99.3
2016-06-01T10:12:38.296Z,99.88
2016-06-01T10:13:38.282Z,99.35
2016-06-01T10:14:38.253Z,99.59
2016-06-01T10:15:38.241Z,99.99
2016-06-01T10:16:38.227Z,99.68
2016-06-01T10:17:38.214Z,99.68
2016-06-01T10:18:38.186Z,99.98
2016-06-01T10:19:38.173Z,99.99
2016-06-01T10:20:38.160Z,99.99
2016-06-01T10:21:38.147Z,99.78
2016-06-01T10:22:38.134Z,99.99
2016-06-01T10:23:38.106Z,99.99
2016-06-01T10:24:38.093Z,99.99
2016-06-01T10:25:38.081Z,99.99
2016-06-01T10:26:38.067Z,99.99
2016-06-01T10:27:38.053Z,99.99
2016-06-01T10:28:38.025Z,99.99
2016-06-01T10:29:38.028Z,99.99
2016-06-01T10:30:38.000Z,99.99
2016-06-01T10:31:37.986Z,99.99
2016-06-01T10:32:37.974Z,99.99
2016-06-01T10:33:37.945Z,99.54
2016-06-01T10:34:37.948Z,99.99
2016-06-01T10:35:37.919Z,99.73
2016-06-01T10:36:37.906Z,99.99
2016-06-01T10:37:37.893Z,99.99
2016-06-01T10:38:37.881Z,99.99
2016-06-01T10:39:38.633Z,99.99
2016-06-01T10:40:37.838Z,99.99
2016-06-01T10:41:37.920Z,99.99
2016-06-01T10:42:37.813Z,99.99
2016-06-01T10:43:37.800Z,99.99
2016-06-01T10:44:37.787Z,99.98
2016-06-01T10:45:37.774Z,99.88
2016-06-01T10:46:37.761Z,99.88
2016-06-01T10:47:37.733Z,99.73
2016-06-01T10:48:37.720Z,99.99
2016-06-01T10:49:37.707Z,99.73
2016-06-01T10:50:37.694Z,99.99
2016-06-01T10:51:37.666Z,99.98
2016-06-01T10:52:37.684Z,99.99
2016-06-01T10:53:37.639Z,99.88
2016-06-01T10:54:38.048Z,99.99
2016-06-01T10:55:37.645Z,99.99
2016-06-01T10:56:37.601Z,99.99
2016-06-01T10:57:37.587Z,99.99
2016-06-01T10:58:37.559Z,99.99
2016-06-01T10:59:37.547Z,99.99
2016-06-01T11:00:37.534Z,99.99
2016-06-01T11:01:37.521Z,99.99
2016-06-01T11:02:37.507Z,99.99
2016-06-01T11:03:37.494Z,99.98
2016-06-01T11:04:37.466Z,99.78
2016-06-01T11:05:37.453Z,99.98
2016-06-01T11:06:37.440Z,99.99
2016-06-01T11:07:37.427Z,99.88
2016-06-01T11:08:37.414Z,99.99
2016-06-01T11:09:37.402Z,99.99
2016-06-01T11:10:37.638Z,99.99
2016-06-01T11:11:37.360Z,99.99
2016-06-01T11:12:37.362Z,99.88
2016-06-01T11:13:37.334Z,99.88
2016-06-01T11:14:37.321Z,99.99
2016-06-01T11:15:37.308Z,99.73
2016-06-01T11:16:37.295Z,99.99
2016-06-01T11:17:37.282Z,99.99
2016-06-01T11:18:37.254Z,99.98
2016-06-01T11:19:37.241Z,99.78
2016-06-01T11:20:37.228Z,99.99
2016-06-01T11:21:37.215Z,99.99
2016-06-01T11:22:37.201Z,99.98
2016-06-01T11:23:37.189Z,99.99
2016-06-01T11:24:37.160Z,99.99
2016-06-01T11:25:37.148Z,99.99
2016-06-01T11:26:37.134Z,99.99
2016-06-01T11:27:37.122Z,99.99
2016-06-01T11:28:37.109Z,99.69
2016-06-01T11:29:37.096Z,99.78
2016-06-01T11:30:37.067Z,99.99
2016-06-01T11:31:37.053Z,99.99
2016-06-01T11:32:37.041Z,99.88
2016-06-01T11:33:37.028Z,99.99
2016-06-01T11:34:37.016Z,99.99
2016-06-01T11:35:37.003Z,99.84
2016-06-01T11:36:36.990Z,99.99
2016-06-01T11:37:36.977Z,99.99
2016-06-01T11:38:36.964Z,99.99
2016-06-01T11:39:36.951Z,99.99
2016-06-01T11:40:36.922Z,99.98
2016-06-01T11:41:36.909Z,99.74
2016-06-01T11:42:36.896Z,99.79
2016-06-01T11:43:36.883Z,99.59
2016-06-01T11:44:36.871Z,99.59
2016-06-01T11:45:36.858Z,99.11
2016-06-01T11:46:36.844Z,99.4
2016-06-01T11:47:36.832Z,98.82
2016-06-01T11:48:36.819Z,98.63
2016-06-01T11:49:36.806Z,98.44
2016-06-01T11:50:36.793Z,98.54
2016-06-01T11:51:36.765Z,98.49
2016-06-01T11:52:36.751Z,98.39
2016-06-01T11:53:36.738Z,98.68
2016-06-01T11:54:38.194Z,98.77
2016-06-01T11:55:36.712Z,98.19
2016-06-01T11:56:36.700Z,97.81
2016-06-01T11:57:36.687Z,97.91
2016-06-01T11:58:36.673Z,98.1
2016-06-01T11:59:36.661Z,97.91
2016-06-01T12:00:36.648Z,98.39
2016-06-01T12:01:36.635Z,98.97
2016-06-01T12:02:36.622Z,98.49
2016-06-01T12:03:36.609Z,99.16
2016-06-01T12:04:36.581Z,98.58
2016-06-01T12:05:36.568Z,98.77
2016-06-01T12:06:36.554Z,98.58
2016-06-01T12:07:36.542Z,98.68
2016-06-01T12:08:36.529Z,98.77
2016-06-01T12:09:36.516Z,99.4
2016-06-01T12:10:36.502Z,99.11
2016-06-01T12:11:36.475Z,99.64
2016-06-01T12:12:36.461Z,99.59
2016-06-01T12:13:36.449Z,99.16
2016-06-01T12:14:36.436Z,99.11
2016-06-01T12:15:36.422Z,99.35
2016-06-01T12:16:36.410Z,99.49
2016-06-01T12:17:36.396Z,99.78
2016-06-01T12:18:36.368Z,99.4
2016-06-01T12:19:36.355Z,99.69
2016-06-01T12:20:36.342Z,99.49
2016-06-01T12:21:36.329Z,99.88
2016-06-01T12:22:36.316Z,99.49
2016-06-01T12:23:36.304Z,99.64
2016-06-01T12:24:36.290Z,99.69
2016-06-01T12:25:36.278Z,99.78
2016-06-01T12:26:36.249Z,99.59
2016-06-01T12:27:36.251Z,99.74
2016-06-01T12:28:36.224Z,99.59
2016-06-01T12:29:36.210Z,99.49
2016-06-01T12:30:36.197Z,99.69
2016-06-01T12:31:36.185Z,99.88
2016-06-01T12:32:36.156Z,99.59
2016-06-01T12:33:36.142Z,99.49
2016-06-01T12:34:36.130Z,99.78
2016-06-01T12:35:36.133Z,99.69
2016-06-01T12:36:36.103Z,99.78
2016-06-01T12:37:36.092Z,99.98
2016-06-01T12:38:36.063Z,99.88
2016-06-01T12:39:36.050Z,99.98
2016-06-01T12:40:36.459Z,99.98
2016-06-01T12:41:36.024Z,99.98
2016-06-01T12:42:36.011Z,99.99
2016-06-01T12:43:35.998Z,99.99
2016-06-01T12:44:35.969Z,99.99
2016-06-01T12:45:35.956Z,99.99
2016-06-01T12:46:35.944Z,99.99
2016-06-01T12:47:35.930Z,99.99
2016-06-01T12:48:35.918Z,99.99
2016-06-01T12:49:35.889Z,99.98
2016-06-01T12:50:35.876Z,99.99
2016-06-01T12:51:35.863Z,99.99
2016-06-01T12:52:35.851Z,99.99
2016-06-01T12:53:35.838Z,99.99